sensor_id;sensor_type;location;lat;lon;timestamp;temperature;humidity
16964;DHT22;8598;50.508;10.436;2022-12-13T00:00:03;-9.20;99.90
16964;DHT22;8598;50.508;10.436;2022-12-13T00:02:31;-9.20;99.90
16964;DHT22;8598;50.508;10.436;2022-12-13T00:04:58;-9.20;99.90
16964;DHT22;8598;50.508;10.436;2022-12-13T00:07:25;-9.20;99.90
16964;DHT22;8598;50.508;10.436;2022-12-13T00:09:51;-9.20;99.90
16964;DHT22;8598;50.508;10.436;2022-12-13T00:12:18;-9.30;99.90
16964;DHT22;8598;50.508;10.436;2022-12-13T00:14:45;-9.30;99.90
16964;DHT22;8598;50.508;10.436;2022-12-13T00:17:12;-9.20;99.90
16964;DHT22;8598;50.508;10.436;2022-12-13T00:19:40;-9.30;99.90
16964;DHT22;8598;50.508;10.436;2022-12-13T00:22:06;-9.40;99.90
16964;DHT22;8598;50.508;10.436;2022-12-13T00:24:33;-9.30;99.90
16964;DHT22;8598;50.508;10.436;2022-12-13T00:27:00;-9.20;99.90
16964;DHT22;8598;50.508;10.436;2022-12-13T00:29:27;-9.20;99.90
16964;DHT22;8598;50.508;10.436;2022-12-13T00:31:54;-9.30;99.90
16964;DHT22;8598;50.508;10.436;2022-12-13T00:34:20;-9.40;99.90
16964;DHT22;8598;50.508;10.436;2022-12-13T00:36:48;-9.40;99.90
16964;DHT22;8598;50.508;10.436;2022-12-13T00:39:15;-9.50;99.90
16964;DHT22;8598;50.508;10.436;2022-12-13T00:41:43;-9.60;99.90
16964;DHT22;8598;50.508;10.436;2022-12-13T00:44:11;-9.70;99.90
16964;DHT22;8598;50.508;10.436;2022-12-13T00:46:39;-9.70;99.90
16964;DHT22;8598;50.508;10.436;2022-12-13T00:49:06;-9.60;99.90
16964;DHT22;8598;50.508;10.436;2022-12-13T00:51:33;-9.70;99.90
16964;DHT22;8598;50.508;10.436;2022-12-13T00:54:02;-9.60;99.90
16964;DHT22;8598;50.508;10.436;2022-12-13T00:56:30;-9.70;99.90
16964;DHT22;8598;50.508;10.436;2022-12-13T00:58:58;-9.60;99.90
16964;DHT22;8598;50.508;10.436;2022-12-13T01:01:26;-9.70;99.90
16964;DHT22;8598;50.508;10.436;2022-12-13T01:03:54;-9.80;99.90
16964;DHT22;8598;50.508;10.436;2022-12-13T01:06:25;-9.70;99.90
16964;DHT22;8598;50.508;10.436;2022-12-13T01:08:53;-9.80;99.90
16964;DHT22;8598;50.508;10.436;2022-12-13T01:11:21;-9.80;99.90
16964;DHT22;8598;50.508;10.436;2022-12-13T01:13:48;-9.80;99.90
16964;DHT22;8598;50.508;10.436;2022-12-13T01:16:15;-9.60;99.90
16964;DHT22;8598;50.508;10.436;2022-12-13T01:18:43;-9.70;99.90
16964;DHT22;8598;50.508;10.436;2022-12-13T01:21:11;-9.20;99.90
16964;DHT22;8598;50.508;10.436;2022-12-13T01:23:39;-9.50;99.90
16964;DHT22;8598;50.508;10.436;2022-12-13T01:26:09;-9.50;99.90
16964;DHT22;8598;50.508;10.436;2022-12-13T01:28:38;-9.40;99.90
16964;DHT22;8598;50.508;10.436;2022-12-13T01:31:08;-9.50;99.90
16964;DHT22;8598;50.508;10.436;2022-12-13T01:33:36;-9.60;99.90
16964;DHT22;8598;50.508;10.436;2022-12-13T01:36:05;-9.80;99.90
16964;DHT22;8598;50.508;10.436;2022-12-13T01:38:32;-9.90;99.90
16964;DHT22;8598;50.508;10.436;2022-12-13T01:40:59;-9.80;99.90
16964;DHT22;8598;50.508;10.436;2022-12-13T01:43:30;-9.80;99.90
16964;DHT22;8598;50.508;10.436;2022-12-13T01:46:17;-9.90;99.90
16964;DHT22;8598;50.508;10.436;2022-12-13T01:48:47;-9.90;99.90
16964;DHT22;8598;50.508;10.436;2022-12-13T01:51:16;-10.00;99.90
16964;DHT22;8598;50.508;10.436;2022-12-13T01:53:46;-10.10;99.90
16964;DHT22;8598;50.508;10.436;2022-12-13T01:56:16;-9.90;99.90
16964;DHT22;8598;50.508;10.436;2022-12-13T01:58:46;-8.60;99.90
16964;DHT22;8598;50.508;10.436;2022-12-13T02:01:15;-10.00;99.90
16964;DHT22;8598;50.508;10.436;2022-12-13T02:03:42;-10.00;99.90
16964;DHT22;8598;50.508;10.436;2022-12-13T02:06:12;-10.50;99.90
16964;DHT22;8598;50.508;10.436;2022-12-13T02:08:40;-10.00;99.90
16964;DHT22;8598;50.508;10.436;2022-12-13T02:11:08;-10.00;99.90
16964;DHT22;8598;50.508;10.436;2022-12-13T02:13:35;-9.80;99.90
16964;DHT22;8598;50.508;10.436;2022-12-13T02:16:09;-9.90;99.90
16964;DHT22;8598;50.508;10.436;2022-12-13T02:18:49;-9.70;99.90
16964;DHT22;8598;50.508;10.436;2022-12-13T02:21:22;-9.70;99.90
16964;DHT22;8598;50.508;10.436;2022-12-13T02:27:23;-9.70;99.90
16964;DHT22;8598;50.508;10.436;2022-12-13T02:30:21;-9.70;99.90
16964;DHT22;8598;50.508;10.436;2022-12-13T02:33:14;-9.70;99.90
16964;DHT22;8598;50.508;10.436;2022-12-13T02:35:50;-9.60;99.90
16964;DHT22;8598;50.508;10.436;2022-12-13T02:38:23;-10.40;99.90
16964;DHT22;8598;50.508;10.436;2022-12-13T02:40:56;-10.00;99.90
16964;DHT22;8598;50.508;10.436;2022-12-13T02:43:28;-10.10;99.90
16964;DHT22;8598;50.508;10.436;2022-12-13T02:46:00;-10.00;99.90
16964;DHT22;8598;50.508;10.436;2022-12-13T02:48:28;-10.10;99.90
16964;DHT22;8598;50.508;10.436;2022-12-13T02:50:57;-10.10;99.90
16964;DHT22;8598;50.508;10.436;2022-12-13T02:53:25;-10.20;99.90
16964;DHT22;8598;50.508;10.436;2022-12-13T02:55:52;-10.10;99.90
16964;DHT22;8598;50.508;10.436;2022-12-13T02:58:23;-10.20;99.90
16964;DHT22;8598;50.508;10.436;2022-12-13T03:00:57;-10.30;99.90
16964;DHT22;8598;50.508;10.436;2022-12-13T03:03:40;-10.40;99.90
16964;DHT22;8598;50.508;10.436;2022-12-13T03:06:22;-10.40;99.90
16964;DHT22;8598;50.508;10.436;2022-12-13T03:08:59;-10.20;99.90
16964;DHT22;8598;50.508;10.436;2022-12-13T03:11:42;-10.10;99.90
16964;DHT22;8598;50.508;10.436;2022-12-13T03:14:29;-10.10;99.90
16964;DHT22;8598;50.508;10.436;2022-12-13T03:16:59;-10.10;99.90
16964;DHT22;8598;50.508;10.436;2022-12-13T03:19:28;-10.00;99.90
16964;DHT22;8598;50.508;10.436;2022-12-13T03:21:55;-10.10;99.90
16964;DHT22;8598;50.508;10.436;2022-12-13T03:24:22;-10.30;99.90
16964;DHT22;8598;50.508;10.436;2022-12-13T03:26:53;-10.30;99.90
16964;DHT22;8598;50.508;10.436;2022-12-13T03:29:19;-9.40;99.90
16964;DHT22;8598;50.508;10.436;2022-12-13T03:31:46;-10.20;99.90
16964;DHT22;8598;50.508;10.436;2022-12-13T03:34:13;-10.20;99.90
16964;DHT22;8598;50.508;10.436;2022-12-13T03:36:41;-10.20;99.90
16964;DHT22;8598;50.508;10.436;2022-12-13T03:39:08;-10.20;99.90
16964;DHT22;8598;50.508;10.436;2022-12-13T03:41:35;-10.30;99.90
16964;DHT22;8598;50.508;10.436;2022-12-13T03:44:04;-10.20;99.90
16964;DHT22;8598;50.508;10.436;2022-12-13T03:46:31;-10.10;99.90
16964;DHT22;8598;50.508;10.436;2022-12-13T03:48:58;-10.00;99.90
16964;DHT22;8598;50.508;10.436;2022-12-13T03:51:24;-10.10;99.90
16964;DHT22;8598;50.508;10.436;2022-12-13T03:53:52;-10.10;99.90
16964;DHT22;8598;50.508;10.436;2022-12-13T03:56:19;-10.20;99.90
16964;DHT22;8598;50.508;10.436;2022-12-13T03:58:46;-10.20;99.90
16964;DHT22;8598;50.508;10.436;2022-12-13T04:01:14;-10.20;99.90
16964;DHT22;8598;50.508;10.436;2022-12-13T04:03:43;-10.20;99.90
16964;DHT22;8598;50.508;10.436;2022-12-13T04:06:14;-9.80;99.90
16964;DHT22;8598;50.508;10.436;2022-12-13T04:08:41;-10.50;99.90
16964;DHT22;8598;50.508;10.436;2022-12-13T04:11:09;-10.40;99.90
16964;DHT22;8598;50.508;10.436;2022-12-13T04:13:54;-10.40;99.90
16964;DHT22;8598;50.508;10.436;2022-12-13T04:16:22;-10.50;99.90
16964;DHT22;8598;50.508;10.436;2022-12-13T04:18:48;-10.50;99.90
16964;DHT22;8598;50.508;10.436;2022-12-13T04:21:15;-10.60;99.90
16964;DHT22;8598;50.508;10.436;2022-12-13T04:23:42;-10.60;99.90
16964;DHT22;8598;50.508;10.436;2022-12-13T04:26:10;-10.70;99.90
16964;DHT22;8598;50.508;10.436;2022-12-13T04:28:37;-10.70;99.90
16964;DHT22;8598;50.508;10.436;2022-12-13T04:31:04;-10.60;99.90
16964;DHT22;8598;50.508;10.436;2022-12-13T04:33:31;-10.70;99.90
16964;DHT22;8598;50.508;10.436;2022-12-13T04:35:58;-10.50;99.90
16964;DHT22;8598;50.508;10.436;2022-12-13T04:38:25;-10.40;99.90
16964;DHT22;8598;50.508;10.436;2022-12-13T04:40:52;-10.40;99.90
16964;DHT22;8598;50.508;10.436;2022-12-13T04:43:20;-11.00;99.90
16964;DHT22;8598;50.508;10.436;2022-12-13T04:45:46;-10.30;99.90
16964;DHT22;8598;50.508;10.436;2022-12-13T04:48:14;-10.40;99.90
16964;DHT22;8598;50.508;10.436;2022-12-13T04:50:41;-10.50;99.90
16964;DHT22;8598;50.508;10.436;2022-12-13T04:53:13;-10.40;99.90
16964;DHT22;8598;50.508;10.436;2022-12-13T04:55:40;-10.40;99.90
16964;DHT22;8598;50.508;10.436;2022-12-13T04:58:07;-10.40;99.90
16964;DHT22;8598;50.508;10.436;2022-12-13T05:00:35;-10.50;99.90
16964;DHT22;8598;50.508;10.436;2022-12-13T05:03:02;-10.60;99.90
16964;DHT22;8598;50.508;10.436;2022-12-13T05:05:29;-10.70;99.90
16964;DHT22;8598;50.508;10.436;2022-12-13T05:07:56;-10.70;99.90
16964;DHT22;8598;50.508;10.436;2022-12-13T05:10:22;-10.70;99.90
16964;DHT22;8598;50.508;10.436;2022-12-13T05:12:49;-10.80;99.90
16964;DHT22;8598;50.508;10.436;2022-12-13T05:15:16;-10.70;99.90
16964;DHT22;8598;50.508;10.436;2022-12-13T05:17:44;-10.70;99.90
16964;DHT22;8598;50.508;10.436;2022-12-13T05:20:11;-10.80;99.90
16964;DHT22;8598;50.508;10.436;2022-12-13T05:22:37;-10.70;99.90
16964;DHT22;8598;50.508;10.436;2022-12-13T05:25:05;-10.80;99.90
16964;DHT22;8598;50.508;10.436;2022-12-13T05:27:32;-9.90;99.90
16964;DHT22;8598;50.508;10.436;2022-12-13T05:29:59;-10.70;99.90
16964;DHT22;8598;50.508;10.436;2022-12-13T05:32:26;-10.70;99.90
16964;DHT22;8598;50.508;10.436;2022-12-13T05:34:54;-10.60;99.90
16964;DHT22;8598;50.508;10.436;2022-12-13T05:37:21;-10.60;99.90
16964;DHT22;8598;50.508;10.436;2022-12-13T05:39:47;-10.60;99.90
16964;DHT22;8598;50.508;10.436;2022-12-13T05:42:14;-10.50;99.90
16964;DHT22;8598;50.508;10.436;2022-12-13T05:44:41;-10.50;99.90
16964;DHT22;8598;50.508;10.436;2022-12-13T05:47:08;-10.50;99.90
16964;DHT22;8598;50.508;10.436;2022-12-13T05:49:34;-10.50;99.90
16964;DHT22;8598;50.508;10.436;2022-12-13T05:52:02;-10.60;99.90
16964;DHT22;8598;50.508;10.436;2022-12-13T05:54:29;-10.70;99.90
16964;DHT22;8598;50.508;10.436;2022-12-13T05:56:56;-10.70;99.90
16964;DHT22;8598;50.508;10.436;2022-12-13T05:59:23;-10.70;99.90
16964;DHT22;8598;50.508;10.436;2022-12-13T06:01:49;-10.70;99.90
16964;DHT22;8598;50.508;10.436;2022-12-13T06:04:16;-10.70;99.90
16964;DHT22;8598;50.508;10.436;2022-12-13T06:06:43;-10.80;99.90
16964;DHT22;8598;50.508;10.436;2022-12-13T06:09:11;-10.80;99.90
16964;DHT22;8598;50.508;10.436;2022-12-13T06:11:38;-10.90;99.90
16964;DHT22;8598;50.508;10.436;2022-12-13T06:14:04;-10.80;99.90
16964;DHT22;8598;50.508;10.436;2022-12-13T06:16:31;-10.70;99.90
16964;DHT22;8598;50.508;10.436;2022-12-13T06:18:58;-9.40;99.90
16964;DHT22;8598;50.508;10.436;2022-12-13T06:21:25;-10.80;99.90
16964;DHT22;8598;50.508;10.436;2022-12-13T06:23:52;-10.90;99.90
16964;DHT22;8598;50.508;10.436;2022-12-13T06:26:20;-11.00;99.90
16964;DHT22;8598;50.508;10.436;2022-12-13T06:28:46;-11.00;99.90
16964;DHT22;8598;50.508;10.436;2022-12-13T06:31:13;-11.00;99.90
16964;DHT22;8598;50.508;10.436;2022-12-13T06:33:42;-11.10;99.90
16964;DHT22;8598;50.508;10.436;2022-12-13T06:36:09;-11.20;99.90
16964;DHT22;8598;50.508;10.436;2022-12-13T06:38:36;-11.10;99.90
16964;DHT22;8598;50.508;10.436;2022-12-13T06:41:08;-11.20;99.90
16964;DHT22;8598;50.508;10.436;2022-12-13T06:43:36;-10.90;99.90
16964;DHT22;8598;50.508;10.436;2022-12-13T06:46:04;-10.80;99.90
16964;DHT22;8598;50.508;10.436;2022-12-13T06:48:31;-10.80;99.90
16964;DHT22;8598;50.508;10.436;2022-12-13T06:51:01;-10.80;99.90
16964;DHT22;8598;50.508;10.436;2022-12-13T06:53:29;-10.90;99.90
16964;DHT22;8598;50.508;10.436;2022-12-13T06:55:56;-10.80;99.90
16964;DHT22;8598;50.508;10.436;2022-12-13T06:58:23;-10.70;99.90
16964;DHT22;8598;50.508;10.436;2022-12-13T07:01:00;-10.70;99.90
16964;DHT22;8598;50.508;10.436;2022-12-13T07:03:26;-10.80;99.90
16964;DHT22;8598;50.508;10.436;2022-12-13T07:05:53;-10.80;99.90
16964;DHT22;8598;50.508;10.436;2022-12-13T07:08:20;-10.80;99.90
16964;DHT22;8598;50.508;10.436;2022-12-13T07:10:47;-10.80;99.90
16964;DHT22;8598;50.508;10.436;2022-12-13T07:13:13;-10.80;99.90
16964;DHT22;8598;50.508;10.436;2022-12-13T07:15:40;-10.90;99.90
16964;DHT22;8598;50.508;10.436;2022-12-13T07:18:08;-10.90;99.90
16964;DHT22;8598;50.508;10.436;2022-12-13T07:20:37;-11.00;99.90
16964;DHT22;8598;50.508;10.436;2022-12-13T07:23:04;-11.00;99.90
16964;DHT22;8598;50.508;10.436;2022-12-13T07:25:31;-10.90;99.90
16964;DHT22;8598;50.508;10.436;2022-12-13T07:27:59;-10.80;99.90
16964;DHT22;8598;50.508;10.436;2022-12-13T07:30:26;-10.70;99.90
16964;DHT22;8598;50.508;10.436;2022-12-13T07:32:53;-10.80;99.90
16964;DHT22;8598;50.508;10.436;2022-12-13T07:35:21;-10.80;99.90
16964;DHT22;8598;50.508;10.436;2022-12-13T07:37:48;-10.80;99.90
16964;DHT22;8598;50.508;10.436;2022-12-13T07:40:15;-10.90;99.90
16964;DHT22;8598;50.508;10.436;2022-12-13T07:42:48;-10.90;99.90
16964;DHT22;8598;50.508;10.436;2022-12-13T07:45:15;-10.80;99.90
16964;DHT22;8598;50.508;10.436;2022-12-13T07:47:42;-10.60;99.90
16964;DHT22;8598;50.508;10.436;2022-12-13T07:50:09;-10.50;99.90
16964;DHT22;8598;50.508;10.436;2022-12-13T07:52:37;-10.50;99.90
16964;DHT22;8598;50.508;10.436;2022-12-13T07:55:05;-10.40;99.90
16964;DHT22;8598;50.508;10.436;2022-12-13T07:57:32;-10.30;99.90
16964;DHT22;8598;50.508;10.436;2022-12-13T07:59:59;-10.30;99.90
16964;DHT22;8598;50.508;10.436;2022-12-13T08:02:26;-10.30;99.90
16964;DHT22;8598;50.508;10.436;2022-12-13T08:04:53;-10.30;99.90
16964;DHT22;8598;50.508;10.436;2022-12-13T08:07:20;-10.20;99.90
16964;DHT22;8598;50.508;10.436;2022-12-13T08:09:48;-10.20;99.90
16964;DHT22;8598;50.508;10.436;2022-12-13T08:12:14;-10.20;99.90
16964;DHT22;8598;50.508;10.436;2022-12-13T08:14:41;-11.00;99.90
16964;DHT22;8598;50.508;10.436;2022-12-13T08:17:08;-10.20;99.90
16964;DHT22;8598;50.508;10.436;2022-12-13T08:19:35;-10.10;99.90
16964;DHT22;8598;50.508;10.436;2022-12-13T08:22:01;-10.00;99.90
16964;DHT22;8598;50.508;10.436;2022-12-13T08:24:29;-10.00;99.90
16964;DHT22;8598;50.508;10.436;2022-12-13T08:26:59;-9.90;99.90
16964;DHT22;8598;50.508;10.436;2022-12-13T08:29:26;-9.90;99.90
16964;DHT22;8598;50.508;10.436;2022-12-13T08:31:53;-9.80;99.90
16964;DHT22;8598;50.508;10.436;2022-12-13T08:34:20;-9.80;99.90
16964;DHT22;8598;50.508;10.436;2022-12-13T08:36:47;-9.70;99.90
16964;DHT22;8598;50.508;10.436;2022-12-13T08:39:14;-9.60;99.90
16964;DHT22;8598;50.508;10.436;2022-12-13T08:41:40;-9.50;99.90
16964;DHT22;8598;50.508;10.436;2022-12-13T08:44:08;-9.50;99.90
16964;DHT22;8598;50.508;10.436;2022-12-13T08:46:35;-9.30;99.90
16964;DHT22;8598;50.508;10.436;2022-12-13T08:49:02;-9.30;99.90
16964;DHT22;8598;50.508;10.436;2022-12-13T08:51:29;-9.20;99.90
16964;DHT22;8598;50.508;10.436;2022-12-13T08:53:55;-9.10;99.90
16964;DHT22;8598;50.508;10.436;2022-12-13T08:56:22;-9.10;99.90
16964;DHT22;8598;50.508;10.436;2022-12-13T08:58:49;-9.00;99.90
16964;DHT22;8598;50.508;10.436;2022-12-13T09:01:18;-8.90;99.90
16964;DHT22;8598;50.508;10.436;2022-12-13T09:03:45;-8.90;99.90
16964;DHT22;8598;50.508;10.436;2022-12-13T09:06:13;-8.90;99.90
16964;DHT22;8598;50.508;10.436;2022-12-13T09:08:41;-9.90;99.90
16964;DHT22;8598;50.508;10.436;2022-12-13T09:11:09;-8.70;99.90
16964;DHT22;8598;50.508;10.436;2022-12-13T09:13:37;-8.60;99.90
16964;DHT22;8598;50.508;10.436;2022-12-13T09:16:06;-8.50;99.90
16964;DHT22;8598;50.508;10.436;2022-12-13T09:18:34;-8.40;99.90
16964;DHT22;8598;50.508;10.436;2022-12-13T09:21:05;-8.30;99.90
16964;DHT22;8598;50.508;10.436;2022-12-13T09:23:32;-8.10;99.90
16964;DHT22;8598;50.508;10.436;2022-12-13T09:25:59;-8.10;99.90
16964;DHT22;8598;50.508;10.436;2022-12-13T09:28:26;-8.10;99.90
16964;DHT22;8598;50.508;10.436;2022-12-13T09:30:53;-8.20;99.90
16964;DHT22;8598;50.508;10.436;2022-12-13T09:33:20;-8.20;99.90
16964;DHT22;8598;50.508;10.436;2022-12-13T09:35:49;-8.10;99.90
16964;DHT22;8598;50.508;10.436;2022-12-13T09:38:16;-8.00;99.90
16964;DHT22;8598;50.508;10.436;2022-12-13T09:40:44;-7.90;99.90
16964;DHT22;8598;50.508;10.436;2022-12-13T09:43:20;-7.80;99.90
16964;DHT22;8598;50.508;10.436;2022-12-13T09:45:48;-7.70;99.90
16964;DHT22;8598;50.508;10.436;2022-12-13T09:48:16;-7.50;99.90
16964;DHT22;8598;50.508;10.436;2022-12-13T09:50:45;-7.50;99.90
16964;DHT22;8598;50.508;10.436;2022-12-13T09:53:16;-7.40;99.90
16964;DHT22;8598;50.508;10.436;2022-12-13T09:55:45;-7.30;99.90
16964;DHT22;8598;50.508;10.436;2022-12-13T09:58:16;-7.20;99.90
16964;DHT22;8598;50.508;10.436;2022-12-13T10:00:47;-7.30;99.90
16964;DHT22;8598;50.508;10.436;2022-12-13T10:03:16;-7.10;99.90
16964;DHT22;8598;50.508;10.436;2022-12-13T10:05:47;-7.00;99.90
16964;DHT22;8598;50.508;10.436;2022-12-13T10:08:21;-6.90;99.90
16964;DHT22;8598;50.508;10.436;2022-12-13T10:10:50;-6.80;99.90
16964;DHT22;8598;50.508;10.436;2022-12-13T10:13:19;-6.70;99.90
16964;DHT22;8598;50.508;10.436;2022-12-13T10:15:50;-6.50;99.90
16964;DHT22;8598;50.508;10.436;2022-12-13T10:18:26;-6.50;99.90
16964;DHT22;8598;50.508;10.436;2022-12-13T10:20:57;-6.40;99.90
16964;DHT22;8598;50.508;10.436;2022-12-13T10:23:25;-6.30;99.90
16964;DHT22;8598;50.508;10.436;2022-12-13T10:25:53;-6.30;99.90
16964;DHT22;8598;50.508;10.436;2022-12-13T10:28:25;-6.20;99.90
16964;DHT22;8598;50.508;10.436;2022-12-13T10:30:53;-6.10;99.90
16964;DHT22;8598;50.508;10.436;2022-12-13T10:33:23;-6.10;99.90
16964;DHT22;8598;50.508;10.436;2022-12-13T10:36:14;-6.00;99.90
16964;DHT22;8598;50.508;10.436;2022-12-13T10:38:44;-5.90;99.90
16964;DHT22;8598;50.508;10.436;2022-12-13T10:41:32;-5.80;99.90
16964;DHT22;8598;50.508;10.436;2022-12-13T10:44:17;-5.80;99.90
16964;DHT22;8598;50.508;10.436;2022-12-13T10:46:53;-5.70;99.90
16964;DHT22;8598;50.508;10.436;2022-12-13T10:49:25;-5.60;99.90
16964;DHT22;8598;50.508;10.436;2022-12-13T10:51:53;-5.60;99.90
16964;DHT22;8598;50.508;10.436;2022-12-13T10:54:26;-5.50;99.90
16964;DHT22;8598;50.508;10.436;2022-12-13T10:56:55;-5.50;99.90
16964;DHT22;8598;50.508;10.436;2022-12-13T10:59:32;-5.30;99.90
16964;DHT22;8598;50.508;10.436;2022-12-13T11:01:59;-5.30;99.90
16964;DHT22;8598;50.508;10.436;2022-12-13T11:04:29;-5.20;99.90
16964;DHT22;8598;50.508;10.436;2022-12-13T11:06:58;-5.10;99.90
16964;DHT22;8598;50.508;10.436;2022-12-13T11:09:30;-5.00;99.90
16964;DHT22;8598;50.508;10.436;2022-12-13T11:11:59;-4.90;99.90
16964;DHT22;8598;50.508;10.436;2022-12-13T11:14:33;-4.80;99.90
16964;DHT22;8598;50.508;10.436;2022-12-13T11:17:06;-4.70;99.90
16964;DHT22;8598;50.508;10.436;2022-12-13T11:19:38;-4.60;99.90
16964;DHT22;8598;50.508;10.436;2022-12-13T11:22:06;-4.60;99.90
16964;DHT22;8598;50.508;10.436;2022-12-13T11:24:37;-4.50;99.90
16964;DHT22;8598;50.508;10.436;2022-12-13T11:27:20;-4.40;99.90
16964;DHT22;8598;50.508;10.436;2022-12-13T11:30:10;-4.30;99.90
16964;DHT22;8598;50.508;10.436;2022-12-13T11:32:51;-4.30;99.90
16964;DHT22;8598;50.508;10.436;2022-12-13T11:35:26;-4.30;99.90
16964;DHT22;8598;50.508;10.436;2022-12-13T11:38:01;-4.20;99.90
16964;DHT22;8598;50.508;10.436;2022-12-13T11:40:37;-4.10;99.90
16964;DHT22;8598;50.508;10.436;2022-12-13T11:43:12;-4.00;99.90
16964;DHT22;8598;50.508;10.436;2022-12-13T11:45:42;-3.80;99.90
16964;DHT22;8598;50.508;10.436;2022-12-13T11:48:16;-3.80;99.90
16964;DHT22;8598;50.508;10.436;2022-12-13T11:50:47;-3.70;99.90
16964;DHT22;8598;50.508;10.436;2022-12-13T11:53:20;-3.60;99.90
16964;DHT22;8598;50.508;10.436;2022-12-13T11:55:54;-3.60;99.90
16964;DHT22;8598;50.508;10.436;2022-12-13T11:58:26;-3.60;99.90
16964;DHT22;8598;50.508;10.436;2022-12-13T12:00:56;-3.60;99.90
16964;DHT22;8598;50.508;10.436;2022-12-13T12:03:34;-3.50;99.90
16964;DHT22;8598;50.508;10.436;2022-12-13T12:06:06;-3.50;99.90
16964;DHT22;8598;50.508;10.436;2022-12-13T12:08:38;-3.40;99.90
16964;DHT22;8598;50.508;10.436;2022-12-13T12:11:13;-3.30;99.90
16964;DHT22;8598;50.508;10.436;2022-12-13T12:13:46;-3.30;99.90
16964;DHT22;8598;50.508;10.436;2022-12-13T12:16:21;-3.20;99.90
16964;DHT22;8598;50.508;10.436;2022-12-13T12:18:52;-3.10;99.90
16964;DHT22;8598;50.508;10.436;2022-12-13T12:21:28;-3.10;99.90
16964;DHT22;8598;50.508;10.436;2022-12-13T12:24:09;-3.20;99.90
16964;DHT22;8598;50.508;10.436;2022-12-13T12:26:45;-3.10;99.90
16964;DHT22;8598;50.508;10.436;2022-12-13T12:29:33;-3.20;99.90
16964;DHT22;8598;50.508;10.436;2022-12-13T12:32:10;-3.10;99.90
16964;DHT22;8598;50.508;10.436;2022-12-13T12:34:47;-3.00;99.90
16964;DHT22;8598;50.508;10.436;2022-12-13T12:37:27;-3.00;99.90
16964;DHT22;8598;50.508;10.436;2022-12-13T12:40:27;-3.00;99.90
16964;DHT22;8598;50.508;10.436;2022-12-13T12:43:04;-2.90;99.90
16964;DHT22;8598;50.508;10.436;2022-12-13T12:45:40;-2.90;99.90
16964;DHT22;8598;50.508;10.436;2022-12-13T12:48:29;-2.90;99.90
16964;DHT22;8598;50.508;10.436;2022-12-13T12:51:03;-2.90;99.90
16964;DHT22;8598;50.508;10.436;2022-12-13T12:53:37;-2.90;99.90
16964;DHT22;8598;50.508;10.436;2022-12-13T12:56:19;-2.80;99.90
16964;DHT22;8598;50.508;10.436;2022-12-13T12:58:56;-1.70;99.90
16964;DHT22;8598;50.508;10.436;2022-12-13T13:01:38;-2.80;99.90
16964;DHT22;8598;50.508;10.436;2022-12-13T13:04:11;-2.80;99.90
16964;DHT22;8598;50.508;10.436;2022-12-13T13:06:43;-2.80;99.90
16964;DHT22;8598;50.508;10.436;2022-12-13T13:09:12;-2.70;99.90
16964;DHT22;8598;50.508;10.436;2022-12-13T13:11:42;-2.60;99.90
16964;DHT22;8598;50.508;10.436;2022-12-13T13:14:29;-2.60;99.90
16964;DHT22;8598;50.508;10.436;2022-12-13T13:16:57;-2.60;99.90
16964;DHT22;8598;50.508;10.436;2022-12-13T13:19:44;-2.50;99.90
16964;DHT22;8598;50.508;10.436;2022-12-13T13:22:38;-2.60;99.90
16964;DHT22;8598;50.508;10.436;2022-12-13T13:25:27;-2.60;99.90
16964;DHT22;8598;50.508;10.436;2022-12-13T13:28:04;-2.60;99.90
16964;DHT22;8598;50.508;10.436;2022-12-13T13:30:34;-2.60;99.90
16964;DHT22;8598;50.508;10.436;2022-12-13T13:33:01;-2.60;99.90
16964;DHT22;8598;50.508;10.436;2022-12-13T13:35:49;-2.70;99.90
16964;DHT22;8598;50.508;10.436;2022-12-13T13:41:54;-2.80;99.90
16964;DHT22;8598;50.508;10.436;2022-12-13T13:44:33;-2.80;99.90
16964;DHT22;8598;50.508;10.436;2022-12-13T13:47:13;-2.80;99.90
16964;DHT22;8598;50.508;10.436;2022-12-13T13:49:51;-2.90;99.90
16964;DHT22;8598;50.508;10.436;2022-12-13T13:52:20;-3.00;99.90
16964;DHT22;8598;50.508;10.436;2022-12-13T13:55:22;-3.00;99.90
16964;DHT22;8598;50.508;10.436;2022-12-13T13:58:12;-3.10;99.90
16964;DHT22;8598;50.508;10.436;2022-12-13T14:01:21;-3.00;99.90
16964;DHT22;8598;50.508;10.436;2022-12-13T14:04:20;-3.10;99.90
16964;DHT22;8598;50.508;10.436;2022-12-13T14:07:23;-3.10;99.90
16964;DHT22;8598;50.508;10.436;2022-12-13T14:10:19;-3.20;99.90
16964;DHT22;8598;50.508;10.436;2022-12-13T14:13:14;-3.30;99.90
16964;DHT22;8598;50.508;10.436;2022-12-13T14:16:18;-3.30;99.90
16964;DHT22;8598;50.508;10.436;2022-12-13T14:19:26;-3.30;99.90
16964;DHT22;8598;50.508;10.436;2022-12-13T14:22:21;-3.40;99.90
16964;DHT22;8598;50.508;10.436;2022-12-13T14:24:55;-3.60;99.90
16964;DHT22;8598;50.508;10.436;2022-12-13T14:27:39;-3.60;99.90
16964;DHT22;8598;50.508;10.436;2022-12-13T14:30:11;-3.70;99.90
16964;DHT22;8598;50.508;10.436;2022-12-13T14:32:40;-3.70;99.90
16964;DHT22;8598;50.508;10.436;2022-12-13T14:35:21;-3.80;99.90
16964;DHT22;8598;50.508;10.436;2022-12-13T14:37:57;-3.90;99.90
16964;DHT22;8598;50.508;10.436;2022-12-13T14:40:28;-3.90;99.90
16964;DHT22;8598;50.508;10.436;2022-12-13T14:42:56;-4.00;99.90
16964;DHT22;8598;50.508;10.436;2022-12-13T14:45:27;-4.10;99.90
16964;DHT22;8598;50.508;10.436;2022-12-13T14:47:56;-4.10;99.90
16964;DHT22;8598;50.508;10.436;2022-12-13T14:50:25;-5.20;99.90
16964;DHT22;8598;50.508;10.436;2022-12-13T14:52:53;-4.20;99.90
16964;DHT22;8598;50.508;10.436;2022-12-13T14:55:24;-4.30;99.90
16964;DHT22;8598;50.508;10.436;2022-12-13T14:57:53;-4.30;99.90
16964;DHT22;8598;50.508;10.436;2022-12-13T15:00:23;-4.20;99.90
16964;DHT22;8598;50.508;10.436;2022-12-13T15:02:54;-4.30;99.90
16964;DHT22;8598;50.508;10.436;2022-12-13T15:05:28;-4.30;99.90
16964;DHT22;8598;50.508;10.436;2022-12-13T15:07:56;-4.40;99.90
16964;DHT22;8598;50.508;10.436;2022-12-13T15:10:28;-4.40;99.90
16964;DHT22;8598;50.508;10.436;2022-12-13T15:12:57;-4.50;99.90
16964;DHT22;8598;50.508;10.436;2022-12-13T15:15:27;-4.60;99.90
16964;DHT22;8598;50.508;10.436;2022-12-13T15:18:06;-4.70;99.90
16964;DHT22;8598;50.508;10.436;2022-12-13T15:20:43;-4.70;99.90
16964;DHT22;8598;50.508;10.436;2022-12-13T15:23:17;-4.90;99.90
16964;DHT22;8598;50.508;10.436;2022-12-13T15:25:45;-4.90;99.90
16964;DHT22;8598;50.508;10.436;2022-12-13T15:28:14;-4.90;99.90
16964;DHT22;8598;50.508;10.436;2022-12-13T15:30:42;-5.10;99.90
16964;DHT22;8598;50.508;10.436;2022-12-13T15:33:17;-5.10;99.90
16964;DHT22;8598;50.508;10.436;2022-12-13T15:35:46;-5.20;99.90
16964;DHT22;8598;50.508;10.436;2022-12-13T15:38:17;-5.30;99.90
16964;DHT22;8598;50.508;10.436;2022-12-13T15:40:46;-5.40;99.90
16964;DHT22;8598;50.508;10.436;2022-12-13T15:43:14;-5.40;99.90
16964;DHT22;8598;50.508;10.436;2022-12-13T15:45:44;-5.40;99.90
16964;DHT22;8598;50.508;10.436;2022-12-13T15:48:21;-5.40;99.90
16964;DHT22;8598;50.508;10.436;2022-12-13T15:51:03;-5.40;99.90
16964;DHT22;8598;50.508;10.436;2022-12-13T15:53:31;-5.40;99.90
16964;DHT22;8598;50.508;10.436;2022-12-13T15:55:58;-5.30;99.90